createdAt,value
2018-07-22T00:00:15.917Z,59.40
2018-07-22T00:02:44.255Z,59.30
2018-07-22T00:05:12.572Z,59.40
2018-07-22T00:07:40.889Z,59.30
2018-07-22T00:10:19.811Z,59.90
2018-07-22T00:12:48.128Z,59.70
2018-07-22T00:15:16.414Z,60.00
2018-07-22T00:17:44.743Z,60.20
2018-07-22T00:20:13.062Z,60.20
2018-07-22T00:25:09.410Z,60.90
2018-07-22T00:27:37.921Z,61.00
2018-07-22T00:30:06.843Z,59.70
2018-07-22T00:32:35.203Z,58.60
2018-07-22T00:35:03.515Z,57.90
2018-07-22T00:37:31.869Z,57.50
2018-07-22T00:40:00.192Z,57.10
2018-07-22T00:42:28.499Z,56.70
2018-07-22T00:51:35.013Z,56.30
2018-07-22T00:54:03.394Z,56.10
2018-07-22T00:56:31.709Z,55.60
2018-07-22T00:59:00.000Z,55.50
2018-07-22T01:01:28.302Z,55.50
2018-07-22T01:06:24.682Z,55.20
2018-07-22T01:08:53.184Z,55.10
2018-07-22T01:11:21.575Z,55.10
2018-07-22T01:13:49.951Z,55.60
2018-07-22T01:16:18.289Z,55.00
2018-07-22T01:18:46.618Z,54.90
2018-07-22T01:21:14.992Z,54.80
2018-07-22T01:23:43.351Z,54.80
2018-07-22T01:26:11.743Z,54.70
2018-07-22T01:28:40.111Z,54.80
2018-07-22T01:31:08.748Z,54.80
2018-07-22T01:33:37.084Z,54.60
2018-07-22T01:36:05.460Z,54.50
2018-07-22T01:38:33.799Z,54.30
2018-07-22T01:41:02.119Z,54.50
2018-07-22T01:43:30.441Z,54.40
2018-07-22T01:45:58.759Z,54.40
2018-07-22T01:48:27.088Z,54.30
2018-07-22T01:53:23.503Z,54.20
2018-07-22T01:55:51.857Z,54.20
2018-07-22T01:58:20.159Z,54.20
2018-07-22T02:00:48.487Z,54.20
2018-07-22T02:03:16.825Z,54.20
2018-07-22T02:05:45.182Z,54.10
2018-07-22T02:08:13.508Z,54.00
2018-07-22T02:10:41.852Z,54.60
2018-07-22T02:13:10.219Z,54.00
2018-07-22T02:15:38.662Z,54.00
2018-07-22T02:18:06.987Z,53.90
2018-07-22T02:20:35.320Z,53.80
2018-07-22T02:23:03.631Z,53.80
2018-07-22T02:25:31.919Z,53.90
2018-07-22T02:28:00.228Z,53.90
2018-07-22T02:30:28.527Z,53.80
2018-07-22T02:32:56.822Z,53.90
2018-07-22T02:35:25.120Z,53.80
2018-07-22T02:37:53.431Z,53.90
2018-07-22T02:40:21.745Z,53.70
2018-07-22T02:42:50.071Z,53.70
2018-07-22T02:45:18.382Z,53.60
2018-07-22T02:47:46.699Z,53.70
2018-07-22T02:50:15.019Z,53.60
2018-07-22T02:55:11.419Z,53.60
2018-07-22T02:57:39.727Z,53.50
2018-07-22T03:00:08.214Z,53.60
2018-07-22T03:02:36.550Z,53.40
2018-07-22T03:05:04.884Z,53.50
2018-07-22T03:07:33.186Z,53.40
2018-07-22T03:10:01.508Z,53.40
2018-07-22T03:12:29.848Z,53.40
2018-07-22T03:14:58.175Z,53.30
2018-07-22T03:17:26.508Z,53.30
2018-07-22T03:19:54.819Z,53.30
2018-07-22T03:22:23.126Z,53.40
2018-07-22T03:24:51.443Z,53.40
2018-07-22T03:27:19.802Z,53.30
2018-07-22T03:29:48.133Z,53.50
2018-07-22T03:32:16.462Z,53.40
2018-07-22T03:34:44.808Z,53.40
2018-07-22T03:37:13.136Z,53.30
2018-07-22T03:39:41.451Z,53.40
2018-07-22T03:42:09.999Z,53.40
2018-07-22T03:44:38.302Z,53.30
2018-07-22T03:47:06.604Z,53.40
2018-07-22T03:52:02.976Z,53.20
2018-07-22T03:56:59.419Z,53.20
2018-07-22T03:59:27.744Z,53.20
2018-07-22T04:01:56.075Z,53.10
2018-07-22T04:04:24.399Z,53.10
2018-07-22T04:06:52.744Z,53.30
2018-07-22T04:09:21.070Z,53.20
2018-07-22T04:11:49.444Z,53.30
2018-07-22T04:14:17.764Z,53.50
2018-07-22T04:16:46.083Z,53.20
2018-07-22T04:19:14.410Z,53.00
2018-07-22T04:21:42.727Z,53.20
2018-07-22T04:24:11.056Z,53.10
2018-07-22T04:26:39.379Z,53.40
2018-07-22T04:29:07.695Z,54.00
2018-07-22T04:31:36.048Z,53.40
2018-07-22T04:34:04.357Z,53.40
2018-07-22T04:36:32.677Z,53.40
2018-07-22T04:39:01.005Z,53.40
2018-07-22T04:41:29.403Z,53.60
2018-07-22T04:46:25.743Z,53.50
2018-07-22T04:48:54.042Z,53.50
2018-07-22T04:53:50.414Z,53.60
2018-07-22T04:56:18.731Z,53.50
2018-07-22T04:58:47.042Z,53.60
2018-07-22T05:01:15.350Z,53.50
2018-07-22T05:03:43.676Z,53.50
2018-07-22T05:06:12.002Z,53.60
2018-07-22T05:08:40.307Z,53.60
2018-07-22T05:11:08.621Z,53.60
2018-07-22T05:13:36.950Z,53.60
2018-07-22T05:16:05.285Z,53.60
2018-07-22T05:21:01.776Z,53.60
2018-07-22T05:23:30.102Z,53.60
2018-07-22T05:25:58.462Z,53.60
2018-07-22T05:28:26.811Z,53.50
2018-07-22T05:30:55.102Z,54.00
2018-07-22T05:33:23.406Z,54.00
2018-07-22T05:35:51.737Z,54.00
2018-07-22T05:38:20.105Z,53.80
2018-07-22T05:40:48.524Z,54.00
2018-07-22T05:43:16.886Z,54.00
2018-07-22T05:45:45.191Z,54.10
2018-07-22T05:48:13.542Z,54.00
2018-07-22T05:50:41.844Z,54.00
2018-07-22T05:53:10.183Z,54.10
2018-07-22T05:55:38.510Z,54.10
2018-07-22T05:58:06.819Z,54.10
2018-07-22T06:00:35.125Z,54.70
2018-07-22T06:03:03.969Z,54.10
2018-07-22T06:08:00.376Z,54.20
2018-07-22T06:10:28.750Z,54.30
2018-07-22T06:12:57.157Z,54.20
2018-07-22T06:15:25.771Z,54.30
2018-07-22T06:17:54.076Z,54.30
2018-07-22T06:20:22.410Z,54.40
2018-07-22T06:25:18.812Z,54.40
2018-07-22T06:27:47.146Z,54.40
2018-07-22T06:30:15.479Z,54.30
2018-07-22T06:32:43.832Z,54.40
2018-07-22T06:35:12.153Z,54.50
2018-07-22T06:37:40.479Z,54.50
2018-07-22T06:40:08.878Z,54.60
2018-07-22T06:42:37.223Z,54.60
2018-07-22T06:45:05.908Z,54.50
2018-07-22T06:47:34.222Z,54.60
2018-07-22T06:50:02.640Z,54.50
2018-07-22T06:52:30.953Z,54.20
2018-07-22T06:54:59.317Z,54.30
2018-07-22T06:57:27.719Z,54.40
2018-07-22T06:59:56.099Z,54.50
2018-07-22T07:02:24.419Z,54.50
2018-07-22T07:04:52.859Z,54.50
2018-07-22T07:07:21.182Z,54.50
2018-07-22T07:09:49.507Z,54.50
2018-07-22T07:12:17.826Z,54.50
2018-07-22T07:14:46.134Z,54.50
2018-07-22T07:19:42.497Z,54.50
2018-07-22T07:22:10.811Z,55.00
2018-07-22T07:24:39.127Z,54.30
2018-07-22T07:27:07.433Z,54.20
2018-07-22T07:29:35.765Z,54.10
2018-07-22T07:32:04.062Z,54.00
2018-07-22T07:34:32.401Z,54.10
2018-07-22T07:37:00.739Z,54.20
2018-07-22T07:39:29.030Z,54.10
2018-07-22T07:41:57.335Z,54.10
2018-07-22T07:44:25.634Z,54.10
2018-07-22T07:46:53.987Z,54.00
2018-07-22T07:49:22.286Z,54.00
2018-07-22T07:51:50.608Z,54.00
2018-07-22T07:54:18.899Z,53.90
2018-07-22T07:56:47.342Z,53.90
2018-07-22T07:59:15.652Z,53.90
2018-07-22T08:01:43.975Z,53.90
2018-07-22T08:04:12.279Z,53.90
2018-07-22T08:06:40.734Z,53.80
2018-07-22T08:09:10.225Z,53.80
2018-07-22T08:11:38.578Z,54.40
2018-07-22T08:14:06.882Z,53.70
2018-07-22T08:16:35.800Z,53.70
2018-07-22T08:19:04.192Z,53.70
2018-07-22T08:21:32.461Z,53.70
2018-07-22T08:24:00.750Z,53.70
2018-07-22T08:26:29.063Z,53.60
2018-07-22T08:29:33.995Z,53.60
2018-07-22T08:32:03.440Z,53.60
2018-07-22T08:37:00.299Z,54.20
2018-07-22T08:39:29.599Z,53.60
2018-07-22T08:41:58.527Z,53.90
2018-07-22T08:44:27.093Z,53.50
2018-07-22T08:46:55.402Z,53.50
2018-07-22T08:49:23.714Z,53.30
2018-07-22T08:51:52.076Z,53.20
2018-07-22T08:54:20.371Z,53.10
2018-07-22T08:56:48.679Z,53.20
2018-07-22T09:01:45.064Z,53.20
2018-07-22T09:04:13.378Z,52.60
2018-07-22T09:09:11.179Z,51.80
2018-07-22T09:14:08.211Z,52.80
2018-07-22T09:16:36.618Z,52.10
2018-07-22T09:19:04.926Z,52.10
2018-07-22T09:21:33.338Z,52.40
2018-07-22T09:24:01.736Z,52.50
2018-07-22T09:26:30.071Z,52.30
2018-07-22T09:28:58.407Z,52.50
2018-07-22T09:31:26.719Z,51.60
2018-07-22T09:33:55.046Z,51.00
2018-07-22T09:36:25.201Z,51.20
2018-07-22T09:38:53.466Z,51.30
2018-07-22T09:41:21.743Z,51.40
2018-07-22T09:43:50.197Z,51.60
2018-07-22T09:46:18.623Z,51.40
2018-07-22T09:48:46.925Z,51.60
2018-07-22T09:51:15.337Z,51.60
2018-07-22T09:53:43.728Z,51.60
2018-07-22T09:56:12.053Z,51.70
2018-07-22T09:58:40.371Z,51.80
2018-07-22T10:01:08.684Z,51.90
2018-07-22T10:03:37.086Z,51.90
2018-07-22T10:06:05.610Z,52.60
2018-07-22T10:08:33.928Z,52.10
2018-07-22T10:11:02.399Z,52.20
2018-07-22T10:15:58.806Z,52.40
2018-07-22T10:18:27.118Z,52.10
2018-07-22T10:20:55.431Z,52.10
2018-07-22T10:23:23.856Z,52.20
2018-07-22T10:25:52.134Z,52.40
2018-07-22T10:28:20.468Z,52.50
2018-07-22T10:30:48.778Z,52.40
2018-07-22T10:33:17.087Z,52.40
2018-07-22T10:35:45.413Z,52.50
2018-07-22T10:38:13.718Z,52.80
2018-07-22T10:40:42.126Z,53.10
2018-07-22T10:43:10.466Z,53.00
2018-07-22T10:45:38.782Z,53.20
2018-07-22T10:48:07.101Z,53.20
2018-07-22T10:50:35.449Z,53.40
2018-07-22T10:53:03.897Z,52.80
2018-07-22T10:55:32.212Z,53.00
2018-07-22T10:58:00.533Z,53.20
2018-07-22T11:00:28.911Z,52.90
2018-07-22T11:02:57.226Z,53.50
2018-07-22T11:07:53.630Z,53.10
2018-07-22T11:10:21.944Z,53.00
2018-07-22T11:12:50.339Z,53.40
2018-07-22T11:15:18.796Z,53.30
2018-07-22T11:17:47.136Z,53.00
2018-07-22T11:20:15.462Z,53.30
2018-07-22T11:22:43.775Z,53.20
2018-07-22T11:25:12.190Z,53.40
2018-07-22T11:27:40.482Z,53.50
2018-07-22T11:30:08.815Z,53.40
2018-07-22T11:32:37.128Z,53.50
2018-07-22T11:35:05.489Z,53.40
2018-07-22T11:37:33.829Z,53.40
2018-07-22T11:40:02.150Z,53.20
2018-07-22T11:42:30.462Z,53.40
2018-07-22T11:47:27.007Z,53.30
2018-07-22T11:49:55.328Z,53.40
2018-07-22T11:52:23.757Z,53.30
2018-07-22T11:54:52.039Z,53.20
2018-07-22T11:57:20.378Z,53.10
2018-07-22T11:59:48.682Z,53.00
2018-07-22T12:02:16.997Z,53.10
2018-07-22T12:04:45.321Z,53.20
2018-07-22T12:07:13.676Z,53.00
2018-07-22T12:09:41.987Z,53.20
2018-07-22T12:12:10.448Z,53.00
2018-07-22T12:14:38.772Z,53.30
2018-07-22T12:17:07.094Z,53.30
2018-07-22T12:19:35.411Z,53.70
2018-07-22T12:22:03.735Z,53.40
2018-07-22T12:24:32.107Z,53.30
2018-07-22T12:27:00.417Z,53.20
2018-07-22T12:29:28.760Z,53.30
2018-07-22T12:31:57.059Z,53.00
2018-07-22T12:34:25.403Z,53.10
2018-07-22T12:36:53.684Z,52.90
2018-07-22T12:39:21.985Z,52.90
2018-07-22T12:41:50.337Z,52.90
2018-07-22T12:44:18.676Z,52.80
2018-07-22T12:46:46.986Z,52.70
2018-07-22T12:49:15.305Z,52.60
2018-07-22T12:51:43.611Z,52.80
2018-07-22T12:54:11.943Z,52.80
2018-07-22T12:56:40.279Z,53.00
2018-07-22T12:59:08.613Z,52.80
2018-07-22T13:01:36.950Z,52.80
2018-07-22T13:04:05.416Z,52.80
2018-07-22T13:06:33.735Z,52.80
2018-07-22T13:09:02.111Z,52.70
2018-07-22T13:11:30.541Z,52.70
2018-07-22T13:13:58.863Z,52.40
2018-07-22T13:16:27.178Z,52.70
2018-07-22T13:18:55.570Z,53.20
2018-07-22T13:21:23.834Z,54.20
2018-07-22T13:23:52.215Z,53.70
2018-07-22T13:26:20.519Z,53.70
2018-07-22T13:28:48.862Z,53.50
2018-07-22T13:31:17.194Z,53.50
2018-07-22T13:33:45.702Z,53.20
2018-07-22T13:36:14.037Z,53.30
2018-07-22T13:38:42.366Z,53.10
2018-07-22T13:41:10.793Z,53.30
2018-07-22T13:43:39.141Z,53.20
2018-07-22T13:46:07.478Z,53.20
2018-07-22T13:48:35.815Z,53.60
2018-07-22T13:51:04.163Z,53.30
2018-07-22T13:53:32.554Z,53.30
2018-07-22T13:56:00.901Z,53.00
2018-07-22T13:58:29.228Z,53.10
2018-07-22T14:00:57.542Z,53.00
2018-07-22T14:03:26.965Z,52.90
2018-07-22T14:05:55.305Z,53.00
2018-07-22T14:08:23.953Z,53.70
2018-07-22T14:10:52.335Z,53.00
2018-07-22T14:13:20.656Z,53.00
2018-07-22T14:15:48.979Z,52.90
2018-07-22T14:18:17.335Z,52.80
2018-07-22T14:20:45.671Z,52.80
2018-07-22T14:23:15.203Z,53.00
2018-07-22T14:25:43.519Z,52.90
2018-07-22T14:28:12.271Z,52.90
2018-07-22T14:30:40.542Z,52.70
2018-07-22T14:33:08.859Z,53.00
2018-07-22T14:35:37.180Z,53.00
2018-07-22T14:38:05.850Z,52.60
2018-07-22T14:40:34.237Z,53.00
2018-07-22T14:43:02.572Z,52.60
2018-07-22T14:45:31.976Z,52.90
2018-07-22T14:48:00.387Z,53.10
2018-07-22T14:50:28.744Z,53.10
2018-07-22T14:52:57.141Z,52.70
2018-07-22T14:55:25.487Z,52.70
2018-07-22T14:57:53.819Z,52.80
2018-07-22T15:02:50.228Z,53.00
2018-07-22T15:05:18.540Z,52.80
2018-07-22T15:07:46.891Z,52.80
2018-07-22T15:10:15.240Z,52.90
2018-07-22T15:12:43.625Z,53.00
2018-07-22T15:15:12.044Z,53.10
2018-07-22T15:17:40.375Z,52.80
2018-07-22T15:20:08.942Z,53.10
2018-07-22T15:22:37.425Z,53.10
2018-07-22T15:25:05.871Z,53.10
2018-07-22T15:27:34.182Z,53.20
2018-07-22T15:30:02.724Z,53.20
2018-07-22T15:32:31.223Z,53.10
2018-07-22T15:34:59.537Z,53.10
2018-07-22T15:37:27.834Z,53.00
2018-07-22T15:39:56.696Z,53.00
2018-07-22T15:42:24.998Z,52.90
2018-07-22T15:44:53.366Z,53.20
2018-07-22T15:47:21.727Z,53.00
2018-07-22T15:49:50.224Z,52.70
2018-07-22T15:52:18.559Z,52.30
2018-07-22T15:57:17.215Z,52.80
2018-07-22T15:59:45.513Z,52.40
2018-07-22T16:02:13.886Z,52.40
2018-07-22T16:04:42.191Z,52.10
2018-07-22T16:07:10.534Z,52.60
2018-07-22T16:09:38.904Z,52.70
2018-07-22T16:12:07.248Z,52.30
2018-07-22T16:19:31.836Z,51.80
2018-07-22T16:22:00.223Z,51.70
2018-07-22T16:24:28.568Z,51.60
2018-07-22T16:26:57.210Z,51.70
2018-07-22T16:31:53.565Z,51.90
2018-07-22T16:34:21.901Z,52.00
2018-07-22T16:36:50.190Z,51.10
2018-07-22T16:39:18.543Z,51.70
2018-07-22T16:41:46.924Z,51.30
2018-07-22T16:44:16.342Z,51.50
2018-07-22T16:46:44.662Z,51.60
2018-07-22T16:49:12.995Z,51.80
2018-07-22T16:51:41.354Z,51.70
2018-07-22T16:54:09.689Z,51.60
2018-07-22T16:59:06.067Z,51.60
2018-07-22T17:01:34.417Z,51.70
2018-07-22T17:04:02.730Z,51.40
2018-07-22T17:06:31.089Z,51.70
2018-07-22T17:08:59.623Z,51.40
2018-07-22T17:11:27.958Z,51.50
2018-07-22T17:13:56.324Z,51.00
2018-07-22T17:16:24.846Z,51.20
2018-07-22T17:18:53.265Z,51.00
2018-07-22T17:21:21.791Z,51.40
2018-07-22T17:23:50.695Z,51.80
2018-07-22T17:26:19.040Z,51.70
2018-07-22T17:28:47.431Z,51.90
2018-07-22T17:31:15.872Z,51.40
2018-07-22T17:33:44.096Z,51.30
2018-07-22T17:36:12.408Z,51.30
2018-07-22T17:38:40.766Z,50.50
2018-07-22T17:41:09.227Z,51.10
2018-07-22T17:43:37.558Z,51.00
2018-07-22T17:46:05.845Z,51.20
2018-07-22T17:48:34.153Z,51.60
2018-07-22T17:51:02.512Z,51.90
2018-07-22T17:53:30.790Z,51.80
2018-07-22T17:55:59.120Z,51.20
2018-07-22T17:58:27.410Z,51.90
2018-07-22T18:00:55.836Z,52.40
2018-07-22T18:03:31.672Z,52.50
2018-07-22T18:06:00.336Z,52.40
2018-07-22T18:08:28.665Z,52.40
2018-07-22T18:10:57.324Z,52.70
2018-07-22T18:13:25.643Z,52.60
2018-07-22T18:15:53.966Z,52.70
2018-07-22T18:20:50.713Z,52.80
2018-07-22T18:23:19.083Z,52.90
2018-07-22T18:25:51.800Z,52.90
2018-07-22T18:28:20.238Z,52.90
2018-07-22T18:30:52.476Z,53.00
2018-07-22T18:33:20.787Z,52.30
2018-07-22T18:35:49.106Z,52.40
2018-07-22T18:38:17.532Z,52.10
2018-07-22T18:40:46.116Z,52.30
2018-07-22T18:43:14.761Z,52.40
2018-07-22T18:45:43.091Z,52.40
2018-07-22T18:48:11.812Z,52.50
2018-07-22T18:50:40.212Z,52.40
2018-07-22T18:53:09.138Z,52.40
2018-07-22T18:55:37.905Z,52.30
2018-07-22T18:58:06.698Z,52.10
2018-07-22T19:00:35.401Z,52.10
2018-07-22T19:03:04.398Z,52.20
2018-07-22T19:05:33.132Z,52.10
2018-07-22T19:08:01.972Z,52.30
2018-07-22T19:10:30.758Z,52.10
2018-07-22T19:12:59.523Z,52.20
2018-07-22T19:15:28.237Z,52.40
2018-07-22T19:17:56.922Z,52.70
2018-07-22T19:22:54.389Z,53.00
2018-07-22T19:25:23.079Z,52.80
2018-07-22T19:27:51.848Z,52.80
2018-07-22T19:30:20.559Z,52.90
2018-07-22T19:32:49.243Z,53.20
2018-07-22T19:35:17.927Z,53.50
2018-07-22T19:37:46.818Z,53.60
2018-07-22T19:40:15.509Z,53.70
2018-07-22T19:42:44.269Z,53.50
2018-07-22T19:45:12.982Z,53.40
2018-07-22T19:47:43.826Z,53.60
2018-07-22T19:52:41.085Z,53.50
2018-07-22T19:55:09.878Z,53.10
2018-07-22T19:57:38.968Z,53.20
2018-07-22T20:00:07.758Z,53.40
2018-07-22T20:02:36.443Z,53.80
2018-07-22T20:05:05.201Z,53.60
2018-07-22T20:07:34.226Z,53.60
2018-07-22T20:10:03.015Z,53.90
2018-07-22T20:12:31.838Z,54.70
2018-07-22T20:15:00.694Z,54.00
2018-07-22T20:17:29.579Z,54.20
2018-07-22T20:19:58.270Z,54.00
2018-07-22T20:22:27.186Z,54.10
2018-07-22T20:24:55.850Z,54.00
2018-07-22T20:27:24.191Z,54.10
2018-07-22T20:29:52.808Z,54.30
2018-07-22T20:32:21.496Z,54.40
2018-07-22T20:34:50.180Z,54.70
2018-07-22T20:37:18.530Z,54.80
2018-07-22T20:39:47.041Z,55.30
2018-07-22T20:42:15.726Z,55.00
2018-07-22T20:44:44.060Z,55.20
2018-07-22T20:47:12.501Z,55.00
2018-07-22T20:49:40.825Z,54.90
2018-07-22T20:52:09.144Z,54.80
2018-07-22T20:54:37.476Z,55.20
2018-07-22T20:57:06.120Z,55.10
2018-07-22T20:59:34.504Z,55.00
2018-07-22T21:02:02.849Z,54.70
2018-07-22T21:04:31.254Z,54.80
2018-07-22T21:06:59.607Z,55.00
2018-07-22T21:09:27.936Z,55.40
2018-07-22T21:13:07.561Z,55.30
2018-07-22T21:15:36.025Z,55.70
2018-07-22T21:18:04.431Z,56.10
2018-07-22T21:20:32.766Z,55.90
2018-07-22T21:23:01.107Z,55.80
2018-07-22T21:25:29.468Z,55.60
2018-07-22T21:27:57.815Z,55.40
2018-07-22T21:30:26.130Z,55.60
2018-07-22T21:35:22.555Z,55.60
2018-07-22T21:37:50.902Z,55.70
2018-07-22T21:40:19.262Z,55.80
2018-07-22T21:42:47.691Z,56.00
2018-07-22T21:45:16.051Z,56.20
2018-07-22T21:47:44.383Z,56.20
2018-07-22T21:50:12.699Z,56.40
2018-07-22T21:52:41.309Z,56.50
2018-07-22T21:55:09.660Z,56.50
2018-07-22T21:57:38.181Z,56.50
2018-07-22T22:00:11.973Z,56.50
2018-07-22T22:02:40.293Z,56.50
2018-07-22T22:07:36.687Z,56.50
2018-07-22T22:10:05.193Z,56.40
2018-07-22T22:12:33.481Z,56.10
2018-07-22T22:15:01.838Z,55.90
2018-07-22T22:17:30.220Z,55.80
2018-07-22T22:22:26.667Z,55.70
2018-07-22T22:24:54.996Z,56.10
2018-07-22T22:27:23.326Z,55.70
2018-07-22T22:29:51.705Z,55.50
2018-07-22T22:32:20.045Z,55.50
2018-07-22T22:34:48.428Z,55.50
2018-07-22T22:37:16.806Z,55.50
2018-07-22T22:39:45.969Z,55.40
2018-07-22T22:42:14.378Z,55.40
2018-07-22T22:44:42.712Z,55.50
2018-07-22T22:47:11.144Z,55.50
2018-07-22T22:49:39.534Z,55.70
2018-07-22T22:52:07.903Z,55.60
2018-07-22T22:54:36.263Z,55.80
2018-07-22T22:57:04.642Z,55.80
2018-07-22T22:59:33.080Z,55.90
2018-07-22T23:02:01.450Z,55.90
2018-07-22T23:04:29.836Z,55.80
2018-07-22T23:06:58.208Z,55.90
2018-07-22T23:09:26.562Z,55.90
2018-07-22T23:11:54.905Z,56.00
2018-07-22T23:14:23.224Z,56.00
2018-07-22T23:16:51.562Z,56.10
2018-07-22T23:19:19.863Z,55.90
2018-07-22T23:21:48.212Z,56.00
2018-07-22T23:24:16.529Z,55.90
2018-07-22T23:26:44.924Z,55.90
2018-07-22T23:29:13.244Z,56.10
2018-07-22T23:31:41.620Z,56.00
2018-07-22T23:34:09.947Z,56.10
2018-07-22T23:36:38.298Z,56.00
2018-07-22T23:39:08.265Z,55.70
2018-07-22T23:41:36.598Z,55.50
2018-07-22T23:44:04.926Z,55.70
2018-07-22T23:46:33.260Z,55.70
2018-07-22T23:49:01.576Z,55.60
2018-07-22T23:51:29.898Z,55.70
2018-07-22T23:53:58.202Z,55.80
2018-07-22T23:56:26.511Z,55.90
2018-07-22T23:58:54.840Z,56.00
